BAW65J EGCC-EGLL
Flight info
| Callsign | BAW65J |
|---|---|
| Flight time | 0h 40m |
| Altitude | 19000 |
| Route | SANBA1Y SANBA N859 HON HON2H |
| Aircraft | A20N/M-SDE2E3FGHIRWXY/LB1 |
Departure
| Time | 2026-05-07 15:16 |
|---|---|
| Airport | Manchester Airport (EGCC) |
Arrival
| Time | 2026-05-07 15:56 |
|---|---|
| Airport | London Heathrow Airport (EGLL) |
| Time | Latitude | Longitude | Altitude | Speed | Heading |
|---|---|---|---|---|---|
| 2026-05-07 14:47 | 53.36671 | -2.28124 | 258 ft | 0 kts | 44° |
| 2026-05-07 14:58 | 53.36665 | -2.28132 | 259 ft | 2 kts | 44° |
| 2026-05-07 14:58 | 53.36654 | -2.28150 | 259 ft | 2 kts | 44° |
| 2026-05-07 14:58 | 53.36644 | -2.28167 | 259 ft | 2 kts | 44° |
| 2026-05-07 14:59 | 53.36633 | -2.28184 | 259 ft | 2 kts | 44° |
| 2026-05-07 14:59 | 53.36623 | -2.28201 | 259 ft | 1 kts | 43° |
| 2026-05-07 14:59 | 53.36618 | -2.28216 | 259 ft | 1 kts | 100° |
| 2026-05-07 14:59 | 53.36621 | -2.28228 | 259 ft | 0 kts | 141° |
| 2026-05-07 15:00 | 53.36625 | -2.28234 | 259 ft | 0 kts | 135° |
| 2026-05-07 15:04 | 53.36621 | -2.28227 | 259 ft | 5 kts | 135° |
| 2026-05-07 15:04 | 53.36559 | -2.28125 | 259 ft | 19 kts | 134° |
| 2026-05-07 15:04 | 53.36441 | -2.27942 | 259 ft | 18 kts | 150° |
| 2026-05-07 15:04 | 53.36362 | -2.27989 | 259 ft | 19 kts | 222° |
| 2026-05-07 15:05 | 53.36295 | -2.28061 | 259 ft | 2 kts | 197° |
| 2026-05-07 15:05 | 53.36288 | -2.28065 | 259 ft | 0 kts | 197° |
| 2026-05-07 15:05 | 53.36286 | -2.28066 | 259 ft | 0 kts | 197° |
| 2026-05-07 15:06 | 53.36281 | -2.28068 | 259 ft | 8 kts | 197° |
| 2026-05-07 15:06 | 53.36166 | -2.28020 | 259 ft | 16 kts | 136° |
| 2026-05-07 15:06 | 53.36109 | -2.27925 | 259 ft | 4 kts | 132° |
| 2026-05-07 15:06 | 53.36108 | -2.27924 | 259 ft | 0 kts | 132° |
| 2026-05-07 15:07 | 53.36108 | -2.27922 | 259 ft | 0 kts | 132° |
| 2026-05-07 15:07 | 53.36103 | -2.27914 | 259 ft | 0 kts | 132° |
| 2026-05-07 15:07 | 53.36092 | -2.27893 | 259 ft | 14 kts | 133° |
| 2026-05-07 15:08 | 53.35959 | -2.27842 | 259 ft | 20 kts | 185° |
| 2026-05-07 15:08 | 53.35841 | -2.27787 | 259 ft | 17 kts | 137° |
| 2026-05-07 15:08 | 53.35752 | -2.27659 | 259 ft | 18 kts | 155° |
| 2026-05-07 15:08 | 53.35635 | -2.27548 | 259 ft | 15 kts | 142° |
| 2026-05-07 15:09 | 53.35613 | -2.27519 | 259 ft | 0 kts | 141° |
| 2026-05-07 15:09 | 53.35596 | -2.27495 | 259 ft | 5 kts | 141° |
| 2026-05-07 15:09 | 53.35575 | -2.27466 | 259 ft | 8 kts | 141° |
| 2026-05-07 15:09 | 53.35567 | -2.27456 | 259 ft | 0 kts | 141° |
| 2026-05-07 15:11 | 53.35527 | -2.27401 | 259 ft | 12 kts | 141° |
| 2026-05-07 15:12 | 53.35433 | -2.27276 | 259 ft | 25 kts | 144° |
| 2026-05-07 15:12 | 53.35308 | -2.27199 | 259 ft | 13 kts | 190° |
| 2026-05-07 15:12 | 53.35209 | -2.27233 | 259 ft | 16 kts | 192° |
| 2026-05-07 15:12 | 53.35158 | -2.27250 | 259 ft | 0 kts | 191° |
| 2026-05-07 15:13 | 53.35156 | -2.27251 | 259 ft | 0 kts | 191° |
| 2026-05-07 15:14 | 53.35088 | -2.27274 | 259 ft | 24 kts | 192° |
| 2026-05-07 15:15 | 53.34952 | -2.27435 | 259 ft | 24 kts | 232° |
| 2026-05-07 15:15 | 53.34900 | -2.27544 | 259 ft | 0 kts | 231° |
| 2026-05-07 15:15 | 53.34896 | -2.27549 | 259 ft | 0 kts | 231° |
| 2026-05-07 15:15 | 53.34895 | -2.27552 | 259 ft | 0 kts | 231° |
| 2026-05-07 15:16 | 53.34845 | -2.27658 | 259 ft | 42 kts | 231° |
| 2026-05-07 15:16 | 53.34481 | -2.28409 | 259 ft | 122 kts | 230° |
| 2026-05-07 15:16 | 53.33822 | -2.29775 | 439 ft | 168 kts | 232° |
| 2026-05-07 15:16 | 53.33049 | -2.31404 | 869 ft | 194 kts | 231° |
| 2026-05-07 15:17 | 53.32185 | -2.33227 | 1587 ft | 210 kts | 235° |
| 2026-05-07 15:17 | 53.31687 | -2.35587 | 2147 ft | 233 kts | 272° |
| 2026-05-07 15:17 | 53.31951 | -2.38341 | 2861 ft | 250 kts | 283° |
| 2026-05-07 15:17 | 53.32126 | -2.41310 | 3650 ft | 264 kts | 260° |
| 2026-05-07 15:18 | 53.31354 | -2.44046 | 4405 ft | 266 kts | 227° |
| 2026-05-07 15:18 | 53.29827 | -2.45637 | 4821 ft | 267 kts | 194° |
| 2026-05-07 15:18 | 53.28403 | -2.45763 | 4954 ft | 268 kts | 172° |
| 2026-05-07 15:18 | 53.27604 | -2.45480 | 4959 ft | 267 kts | 164° |
| 2026-05-07 15:19 | 53.25895 | -2.44312 | 4958 ft | 267 kts | 152° |
| 2026-05-07 15:19 | 53.24268 | -2.42778 | 4957 ft | 267 kts | 150° |
| 2026-05-07 15:19 | 53.22663 | -2.41233 | 4956 ft | 267 kts | 150° |
| 2026-05-07 15:19 | 53.21036 | -2.39723 | 4955 ft | 267 kts | 152° |
| 2026-05-07 15:20 | 53.19388 | -2.38238 | 4955 ft | 267 kts | 152° |
| 2026-05-07 15:20 | 53.17758 | -2.36796 | 4955 ft | 267 kts | 152° |
| 2026-05-07 15:20 | 53.16103 | -2.35343 | 4954 ft | 267 kts | 152° |
| 2026-05-07 15:20 | 53.14478 | -2.33920 | 4954 ft | 267 kts | 152° |
| 2026-05-07 15:21 | 53.12818 | -2.32468 | 5031 ft | 272 kts | 152° |
| 2026-05-07 15:21 | 53.11137 | -2.31000 | 5767 ft | 279 kts | 153° |
| 2026-05-07 15:21 | 53.09443 | -2.29520 | 6984 ft | 276 kts | 153° |
| 2026-05-07 15:21 | 53.07772 | -2.28063 | 7995 ft | 279 kts | 153° |
| 2026-05-07 15:22 | 53.06045 | -2.26560 | 8957 ft | 283 kts | 153° |
| 2026-05-07 15:22 | 53.04324 | -2.25062 | 9889 ft | 287 kts | 153° |
| 2026-05-07 15:22 | 53.02542 | -2.23514 | 10706 ft | 295 kts | 152° |
| 2026-05-07 15:22 | 53.00661 | -2.21879 | 11230 ft | 314 kts | 152° |
| 2026-05-07 15:23 | 52.98682 | -2.20160 | 11702 ft | 332 kts | 152° |
| 2026-05-07 15:23 | 52.96599 | -2.18351 | 12130 ft | 351 kts | 152° |
| 2026-05-07 15:23 | 52.94392 | -2.16438 | 12510 ft | 369 kts | 152° |
| 2026-05-07 15:23 | 52.92078 | -2.14435 | 13037 ft | 381 kts | 152° |
| 2026-05-07 15:24 | 52.89881 | -2.12536 | 13752 ft | 385 kts | 152° |
| 2026-05-07 15:25 | 52.86465 | -2.09588 | 14851 ft | 390 kts | 152° |
| 2026-05-07 15:25 | 52.84084 | -2.07536 | 15557 ft | 394 kts | 152° |
| 2026-05-07 15:25 | 52.82258 | -2.05965 | 16085 ft | 397 kts | 152° |
| 2026-05-07 15:26 | 52.80893 | -2.04792 | 16470 ft | 400 kts | 152° |
| 2026-05-07 15:26 | 52.78393 | -2.02645 | 17158 ft | 404 kts | 152° |
| 2026-05-07 15:27 | 52.75905 | -2.00512 | 17816 ft | 408 kts | 152° |
| 2026-05-07 15:27 | 52.73391 | -1.98359 | 18446 ft | 412 kts | 152° |
| 2026-05-07 15:27 | 52.70850 | -1.96185 | 18846 ft | 415 kts | 152° |
| 2026-05-07 15:27 | 52.68269 | -1.93980 | 18951 ft | 415 kts | 152° |
| 2026-05-07 15:28 | 52.65720 | -1.91807 | 18953 ft | 415 kts | 152° |
| 2026-05-07 15:28 | 52.63151 | -1.89619 | 18954 ft | 414 kts | 152° |
| 2026-05-07 15:28 | 52.60592 | -1.87442 | 18955 ft | 414 kts | 152° |
| 2026-05-07 15:28 | 52.58052 | -1.85285 | 18954 ft | 414 kts | 152° |
| 2026-05-07 15:29 | 52.55519 | -1.83136 | 18791 ft | 408 kts | 152° |
| 2026-05-07 15:29 | 52.52991 | -1.80993 | 18150 ft | 406 kts | 152° |
| 2026-05-07 15:29 | 52.50530 | -1.78912 | 17431 ft | 404 kts | 152° |
| 2026-05-07 15:29 | 52.48042 | -1.76810 | 16774 ft | 401 kts | 152° |
| 2026-05-07 15:30 | 52.45570 | -1.74725 | 16134 ft | 397 kts | 152° |
| 2026-05-07 15:30 | 52.43149 | -1.72685 | 15505 ft | 393 kts | 152° |
| 2026-05-07 15:30 | 52.40752 | -1.70668 | 15111 ft | 382 kts | 152° |
| 2026-05-07 15:30 | 52.38436 | -1.68721 | 15039 ft | 364 kts | 152° |
| 2026-05-07 15:31 | 52.36294 | -1.66732 | 15010 ft | 346 kts | 147° |
| 2026-05-07 15:31 | 52.34375 | -1.64533 | 14998 ft | 328 kts | 142° |
| 2026-05-07 15:31 | 52.32654 | -1.62193 | 14995 ft | 312 kts | 139° |
| 2026-05-07 15:31 | 52.31069 | -1.59949 | 14991 ft | 296 kts | 139° |
| 2026-05-07 15:32 | 52.29541 | -1.57777 | 14988 ft | 280 kts | 139° |
| 2026-05-07 15:32 | 52.28117 | -1.55757 | 14987 ft | 265 kts | 139° |
| 2026-05-07 15:32 | 52.26770 | -1.53855 | 14989 ft | 254 kts | 139° |
| 2026-05-07 15:32 | 52.25419 | -1.51952 | 14995 ft | 255 kts | 139° |
| 2026-05-07 15:33 | 52.24067 | -1.50050 | 14842 ft | 256 kts | 139° |
| 2026-05-07 15:33 | 52.22745 | -1.48192 | 14666 ft | 252 kts | 139° |
| 2026-05-07 15:33 | 52.21401 | -1.46304 | 14595 ft | 255 kts | 139° |
| 2026-05-07 15:33 | 52.20039 | -1.44398 | 14885 ft | 258 kts | 139° |
| 2026-05-07 15:34 | 52.18700 | -1.42525 | 14991 ft | 256 kts | 139° |
| 2026-05-07 15:34 | 52.17348 | -1.40636 | 14994 ft | 255 kts | 139° |
| 2026-05-07 15:34 | 52.16010 | -1.38766 | 14997 ft | 255 kts | 139° |
| 2026-05-07 15:34 | 52.14659 | -1.36882 | 14998 ft | 255 kts | 139° |
| 2026-05-07 15:35 | 52.13313 | -1.35005 | 14998 ft | 255 kts | 139° |
| 2026-05-07 15:35 | 52.11964 | -1.33125 | 14991 ft | 255 kts | 140° |
| 2026-05-07 15:35 | 52.10637 | -1.31278 | 14998 ft | 254 kts | 140° |
| 2026-05-07 15:35 | 52.09277 | -1.29386 | 15001 ft | 255 kts | 140° |
| 2026-05-07 15:36 | 52.07932 | -1.27517 | 14999 ft | 255 kts | 140° |
| 2026-05-07 15:36 | 52.06604 | -1.25673 | 14999 ft | 255 kts | 140° |
| 2026-05-07 15:36 | 52.05243 | -1.23785 | 14998 ft | 255 kts | 140° |
| 2026-05-07 15:36 | 52.03899 | -1.21921 | 14998 ft | 254 kts | 140° |
| 2026-05-07 15:37 | 52.02557 | -1.20062 | 14998 ft | 254 kts | 140° |
| 2026-05-07 15:37 | 52.01218 | -1.18210 | 14998 ft | 254 kts | 140° |
| 2026-05-07 15:37 | 51.99865 | -1.16340 | 14998 ft | 254 kts | 140° |
| 2026-05-07 15:37 | 51.98513 | -1.14472 | 14998 ft | 254 kts | 140° |
| 2026-05-07 15:38 | 51.97183 | -1.12636 | 14998 ft | 254 kts | 140° |
| 2026-05-07 15:38 | 51.95836 | -1.10780 | 14998 ft | 254 kts | 140° |
| 2026-05-07 15:38 | 51.94471 | -1.08896 | 14800 ft | 258 kts | 140° |
| 2026-05-07 15:38 | 51.93109 | -1.07019 | 14339 ft | 263 kts | 140° |
| 2026-05-07 15:39 | 51.91715 | -1.05100 | 13943 ft | 261 kts | 140° |
| 2026-05-07 15:39 | 51.90348 | -1.03222 | 13581 ft | 258 kts | 140° |
| 2026-05-07 15:39 | 51.88984 | -1.01347 | 13231 ft | 254 kts | 140° |
| 2026-05-07 15:39 | 51.87653 | -0.99520 | 12894 ft | 249 kts | 140° |
| 2026-05-07 15:40 | 51.86429 | -0.97837 | 12584 ft | 249 kts | 138° |
| 2026-05-07 15:40 | 51.85253 | -0.95789 | 12247 ft | 249 kts | 125° |
| 2026-05-07 15:40 | 51.84366 | -0.93381 | 11924 ft | 248 kts | 117° |
| 2026-05-07 15:40 | 51.83595 | -0.90862 | 11599 ft | 248 kts | 115° |
| 2026-05-07 15:41 | 51.82852 | -0.88369 | 11282 ft | 247 kts | 115° |
| 2026-05-07 15:41 | 51.82100 | -0.85859 | 10962 ft | 246 kts | 116° |
| 2026-05-07 15:41 | 51.81358 | -0.83405 | 10647 ft | 245 kts | 116° |
| 2026-05-07 15:41 | 51.80608 | -0.80942 | 10332 ft | 245 kts | 116° |
| 2026-05-07 15:42 | 51.79853 | -0.78472 | 10026 ft | 243 kts | 116° |
| 2026-05-07 15:42 | 51.79108 | -0.76040 | 9740 ft | 241 kts | 116° |
| 2026-05-07 15:42 | 51.78375 | -0.73649 | 9403 ft | 232 kts | 116° |
| 2026-05-07 15:42 | 51.77676 | -0.71379 | 9097 ft | 223 kts | 116° |
| 2026-05-07 15:43 | 51.77003 | -0.69193 | 8811 ft | 214 kts | 116° |
| 2026-05-07 15:43 | 51.76346 | -0.67063 | 8538 ft | 210 kts | 116° |
| 2026-05-07 15:43 | 51.75693 | -0.64946 | 8269 ft | 209 kts | 116° |
| 2026-05-07 15:43 | 51.75045 | -0.62849 | 7999 ft | 208 kts | 116° |
| 2026-05-07 15:44 | 51.74397 | -0.60749 | 7728 ft | 208 kts | 116° |
| 2026-05-07 15:44 | 51.73759 | -0.58687 | 7461 ft | 207 kts | 116° |
| 2026-05-07 15:44 | 51.73074 | -0.56660 | 7175 ft | 206 kts | 128° |
| 2026-05-07 15:44 | 51.71960 | -0.55236 | 7003 ft | 204 kts | 158° |
| 2026-05-07 15:45 | 51.70570 | -0.54787 | 7015 ft | 205 kts | 176° |
| 2026-05-07 15:45 | 51.69125 | -0.54714 | 7008 ft | 205 kts | 179° |
| 2026-05-07 15:45 | 51.67701 | -0.54680 | 7002 ft | 205 kts | 179° |
| 2026-05-07 15:45 | 51.66272 | -0.54632 | 7000 ft | 205 kts | 178° |
| 2026-05-07 15:46 | 51.63431 | -0.54662 | 6991 ft | 205 kts | 193° |
| 2026-05-07 15:46 | 51.62118 | -0.55589 | 6996 ft | 205 kts | 215° |
| 2026-05-07 15:46 | 51.61077 | -0.56915 | 7005 ft | 205 kts | 222° |
| 2026-05-07 15:47 | 51.60287 | -0.58637 | 6981 ft | 205 kts | 252° |
| 2026-05-07 15:47 | 51.60029 | -0.60889 | 7008 ft | 205 kts | 265° |
| 2026-05-07 15:47 | 51.59951 | -0.63197 | 7003 ft | 205 kts | 267° |
| 2026-05-07 15:47 | 51.59879 | -0.65498 | 6994 ft | 205 kts | 266° |
| 2026-05-07 15:48 | 51.59775 | -0.67780 | 6960 ft | 205 kts | 265° |
| 2026-05-07 15:48 | 51.59650 | -0.70062 | 6685 ft | 206 kts | 264° |
| 2026-05-07 15:48 | 51.59514 | -0.72363 | 6346 ft | 203 kts | 264° |
| 2026-05-07 15:48 | 51.59377 | -0.74601 | 6049 ft | 202 kts | 264° |
| 2026-05-07 15:49 | 51.59111 | -0.76819 | 5723 ft | 200 kts | 246° |
| 2026-05-07 15:49 | 51.58352 | -0.78601 | 5383 ft | 192 kts | 225° |
| 2026-05-07 15:49 | 51.57217 | -0.79640 | 4961 ft | 189 kts | 192° |
| 2026-05-07 15:49 | 51.55941 | -0.79791 | 4623 ft | 183 kts | 179° |
| 2026-05-07 15:50 | 51.54686 | -0.79700 | 4287 ft | 178 kts | 176° |
| 2026-05-07 15:50 | 51.53475 | -0.79580 | 3967 ft | 173 kts | 176° |
| 2026-05-07 15:50 | 51.52297 | -0.79474 | 3659 ft | 168 kts | 176° |
| 2026-05-07 15:50 | 51.51136 | -0.79365 | 3368 ft | 162 kts | 171° |
| 2026-05-07 15:51 | 51.50192 | -0.78621 | 3207 ft | 148 kts | 134° |
| 2026-05-07 15:51 | 51.49531 | -0.77350 | 3129 ft | 148 kts | 126° |
| 2026-05-07 15:51 | 51.48967 | -0.75986 | 3015 ft | 148 kts | 120° |
| 2026-05-07 15:51 | 51.48494 | -0.74516 | 2960 ft | 147 kts | 112° |
| 2026-05-07 15:52 | 51.48132 | -0.72986 | 2860 ft | 147 kts | 107° |
| 2026-05-07 15:52 | 51.47883 | -0.71388 | 2781 ft | 147 kts | 99° |
| 2026-05-07 15:52 | 51.47754 | -0.69749 | 2704 ft | 147 kts | 94° |
| 2026-05-07 15:52 | 51.47714 | -0.68121 | 2496 ft | 147 kts | 90° |
| 2026-05-07 15:53 | 51.47714 | -0.66481 | 2247 ft | 146 kts | 89° |
| 2026-05-07 15:53 | 51.47721 | -0.64870 | 2055 ft | 145 kts | 89° |
| 2026-05-07 15:53 | 51.47726 | -0.63274 | 1866 ft | 139 kts | 89° |
| 2026-05-07 15:53 | 51.47728 | -0.61708 | 1712 ft | 140 kts | 89° |
| 2026-05-07 15:54 | 51.47730 | -0.60250 | 1523 ft | 137 kts | 89° |
| 2026-05-07 15:54 | 51.47732 | -0.58721 | 1334 ft | 137 kts | 89° |
| 2026-05-07 15:54 | 51.47734 | -0.57202 | 1149 ft | 136 kts | 89° |
| 2026-05-07 15:54 | 51.47736 | -0.55696 | 970 ft | 136 kts | 89° |
| 2026-05-07 15:55 | 51.47737 | -0.54170 | 785 ft | 136 kts | 89° |
| 2026-05-07 15:55 | 51.47737 | -0.52675 | 612 ft | 134 kts | 89° |
| 2026-05-07 15:55 | 51.47749 | -0.51174 | 449 ft | 134 kts | 88° |
| 2026-05-07 15:55 | 51.47757 | -0.49716 | 283 ft | 133 kts | 90° |
| 2026-05-07 15:56 | 51.47753 | -0.48285 | 131 ft | 124 kts | 90° |
| 2026-05-07 15:56 | 51.47753 | -0.46935 | 84 ft | 108 kts | 89° |
| 2026-05-07 15:56 | 51.47759 | -0.46007 | 81 ft | 58 kts | 89° |
| 2026-05-07 15:56 | 51.47757 | -0.45559 | 83 ft | 36 kts | 106° |
| 2026-05-07 15:57 | 51.47604 | -0.45466 | 86 ft | 15 kts | 180° |
| 2026-05-07 15:57 | 51.47586 | -0.45467 | 86 ft | 0 kts | 180° |
| 2026-05-07 16:00 | 51.47523 | -0.45494 | 87 ft | 26 kts | 230° |
| 2026-05-07 16:00 | 51.47512 | -0.45753 | 85 ft | 8 kts | 277° |
| 2026-05-07 16:00 | 51.47514 | -0.45767 | 85 ft | 0 kts | 276° |
| 2026-05-07 16:01 | 51.47514 | -0.45768 | 85 ft | 0 kts | 276° |
| 2026-05-07 16:01 | 51.47516 | -0.45888 | 84 ft | 15 kts | 270° |
| 2026-05-07 16:01 | 51.47516 | -0.46055 | 83 ft | 14 kts | 270° |
| 2026-05-07 16:01 | 51.47516 | -0.46190 | 81 ft | 10 kts | 269° |
| 2026-05-07 16:02 | 51.47515 | -0.46320 | 81 ft | 12 kts | 269° |
| 2026-05-07 16:02 | 51.47515 | -0.46449 | 81 ft | 11 kts | 269° |
| 2026-05-07 16:02 | 51.47514 | -0.46576 | 80 ft | 8 kts | 269° |
| 2026-05-07 16:02 | 51.47513 | -0.46634 | 78 ft | 3 kts | 268° |
| 2026-05-07 16:03 | 51.47510 | -0.46700 | 78 ft | 9 kts | 261° |
| 2026-05-07 16:03 | 51.47494 | -0.46834 | 81 ft | 11 kts | 267° |
| 2026-05-07 16:03 | 51.47492 | -0.46961 | 81 ft | 9 kts | 269° |
| 2026-05-07 16:03 | 51.47491 | -0.47064 | 82 ft | 11 kts | 270° |
| 2026-05-07 16:04 | 51.47491 | -0.47268 | 84 ft | 0 kts | 270° |
| 2026-05-07 16:04 | 51.47491 | -0.47334 | 84 ft | 18 kts | 270° |
| 2026-05-07 16:04 | 51.47491 | -0.47435 | 84 ft | 0 kts | 269° |
| 2026-05-07 16:05 | 51.47491 | -0.47450 | 84 ft | 11 kts | 269° |
| 2026-05-07 16:05 | 51.47489 | -0.47593 | 82 ft | 9 kts | 269° |
| 2026-05-07 16:05 | 51.47489 | -0.47648 | 81 ft | 0 kts | 270° |
| 2026-05-07 16:06 | 51.47489 | -0.47674 | 81 ft | 3 kts | 269° |
| 2026-05-07 16:06 | 51.47489 | -0.47721 | 81 ft | 5 kts | 270° |
| 2026-05-07 16:06 | 51.47490 | -0.47902 | 81 ft | 15 kts | 269° |
| 2026-05-07 16:06 | 51.47489 | -0.48031 | 80 ft | 11 kts | 269° |
| 2026-05-07 16:07 | 51.47489 | -0.48220 | 78 ft | 14 kts | 268° |
| 2026-05-07 16:07 | 51.47488 | -0.48328 | 78 ft | 1 kts | 269° |
| 2026-05-07 16:07 | 51.47488 | -0.48332 | 78 ft | 0 kts | 269° |
| 2026-05-07 16:07 | 51.47487 | -0.48336 | 78 ft | 0 kts | 269° |
| 2026-05-07 16:08 | 51.47487 | -0.48338 | 78 ft | 0 kts | 269° |
| 2026-05-07 16:08 | 51.47486 | -0.48348 | 78 ft | 10 kts | 252° |
| 2026-05-07 16:09 | 51.47450 | -0.48363 | 78 ft | 6 kts | 171° |
| 2026-05-07 16:09 | 51.47288 | -0.48362 | 78 ft | 25 kts | 180° |
| 2026-05-07 16:09 | 51.47115 | -0.48359 | 78 ft | 25 kts | 179° |
| 2026-05-07 16:09 | 51.46939 | -0.48357 | 79 ft | 8 kts | 179° |
| 2026-05-07 16:10 | 51.46934 | -0.48356 | 79 ft | 0 kts | 179° |
| 2026-05-07 16:11 | 51.46895 | -0.48370 | 80 ft | 23 kts | 213° |
| 2026-05-07 16:12 | 51.46878 | -0.48503 | 78 ft | 10 kts | 262° |
| 2026-05-07 16:12 | 51.46876 | -0.48721 | 79 ft | 22 kts | 270° |
| 2026-05-07 16:12 | 51.46897 | -0.48857 | 81 ft | 8 kts | 352° |
| 2026-05-07 16:12 | 51.46927 | -0.48860 | 81 ft | 0 kts | 359° |